createdAt,value
2019-02-06T10:51:23.512Z,7.40
2019-02-06T11:01:28.990Z,7.10
2019-02-06T11:11:34.519Z,7.40
2019-02-06T11:21:40.848Z,7.50
2019-02-06T11:31:46.244Z,7.50
2019-02-06T11:41:51.736Z,7.40
2019-02-06T11:51:57.844Z,7.50
2019-02-06T12:02:03.393Z,7.40
2019-02-06T12:12:08.966Z,7.20
2019-02-06T12:22:14.362Z,7.30
2019-02-06T12:32:19.828Z,7.60
2019-02-06T12:42:25.452Z,8.10
2019-02-06T12:52:30.766Z,8.20
2019-02-06T13:02:36.126Z,8.20
2019-02-06T13:12:41.804Z,7.90
2019-02-06T13:22:47.196Z,7.70
2019-02-06T13:32:52.555Z,7.70
2019-02-06T13:42:58.111Z,7.70
2019-02-06T13:53:03.969Z,7.60
2019-02-06T14:03:09.740Z,7.40
2019-02-06T14:13:15.071Z,7.40
2019-02-06T14:23:55.212Z,7.40
2019-02-06T14:34:25.097Z,7.30
2019-02-06T14:44:57.644Z,7.00
2019-02-06T14:55:31.240Z,6.70
2019-02-06T15:06:11.825Z,6.40
2019-02-06T15:16:55.433Z,6.40
2019-02-06T15:27:28.159Z,6.20
2019-02-06T15:38:05.149Z,6.00
2019-02-06T15:49:06.442Z,6.00
2019-02-06T15:59:59.051Z,5.90
2019-02-06T16:10:41.039Z,5.70
2019-02-06T16:21:08.784Z,5.30
2019-02-06T16:31:49.073Z,4.80
2019-02-06T16:42:28.171Z,4.40
2019-02-06T16:53:16.162Z,4.00
2019-02-06T17:03:54.462Z,3.80
2019-02-06T17:14:34.913Z,3.70
2019-02-06T17:25:27.352Z,3.50
2019-02-06T17:36:19.924Z,3.40
2019-02-06T17:46:55.351Z,3.50
2019-02-06T17:57:00.706Z,3.60
2019-02-06T18:07:06.754Z,3.80
2019-02-06T18:17:13.288Z,4.00
2019-02-06T18:27:18.832Z,4.20
2019-02-06T18:37:24.278Z,4.40
2019-02-06T18:47:29.818Z,4.50
2019-02-06T18:57:35.326Z,4.60
2019-02-06T19:07:40.728Z,4.50
2019-02-06T19:17:49.198Z,4.40
2019-02-06T19:27:56.334Z,4.30
2019-02-06T19:38:01.682Z,4.10
2019-02-06T19:48:15.606Z,3.80
2019-02-06T19:58:15.189Z,3.40
2019-02-06T20:08:21.003Z,3.10
2019-02-06T20:18:26.384Z,2.90
2019-02-06T20:28:31.809Z,2.60
2019-02-06T20:38:37.531Z,2.50
2019-02-06T20:48:42.950Z,2.40
2019-02-06T20:58:48.297Z,2.40
2019-02-06T21:08:53.743Z,2.30
2019-02-06T21:19:03.164Z,2.20
2019-02-06T21:29:08.759Z,2.10
2019-02-06T21:39:14.577Z,2.00
2019-02-06T21:49:20.265Z,1.90
2019-02-06T21:59:26.209Z,1.80
2019-02-06T22:09:31.582Z,1.70
2019-02-06T22:19:37.287Z,1.60
2019-02-06T22:29:43.323Z,1.60
2019-02-06T22:39:48.725Z,1.50
2019-02-06T22:49:54.296Z,1.60
2019-02-06T22:59:59.682Z,1.60
2019-02-06T23:10:06.531Z,1.70
2019-02-06T23:20:11.975Z,1.80
2019-02-06T23:30:17.574Z,1.70
2019-02-06T23:40:23.165Z,1.80
2019-02-06T23:50:28.473Z,1.90
